Tiempo atmosférico en la estación meteorológica de Planoles, Girona (1149 m.)



Fecha
DESCASC
Temp. máxima en grados centígrados (hora)
DESCASC
Temp. mínima en grados centígrados (hora)
DESCASC
Temp. media en grados centígrados
DESCASC
Racha de viento máxima en m/sg (hora)
DESCASC
Velocidad máxima media en intervalos de 10 minutos(hora)
DESCASC
Precipitaciones diarias en mm
DESCASC
Precipitaciones de 00:00 a 06:00 en mm
DESCASC
Precipitaciones de 06:00 a 12:00 en mm
DESCASC
Precipitaciones de 12:00 a 18:00 en mm
DESCASC
Precipitaciones de 18:00 a 24:00 en mm
DESCASC
11-08-2020 29.4 (16:20) 16.4 (03:40) 22.9 8.06 (13:30) 5 (13:30) 0 0 0 0 0
10-08-2020 29.1 (13:10) 14.2 (00:30) 21.7 10.83 (17:40) 5.28 (17:40) 0 0 0 0 0
09-08-2020 30.3 (13:20) 13.1 (15:40) 21.7 12.22 (18:20) 7.22 (15:20) 14.2 0 0 10.8 3.4
08-08-2020 32.1 (15:00) 18.3 (04:10) 25.2 8.61 (15:40) 4.72 (15:20) 0.4 0 0 0.4 0
07-08-2020 30.9 (16:10) 15.2 (00:00) 23 8.33 (13:20) 5 (13:10) 0 0 0 0 0
06-08-2020 29.6 (16:50) 11.2 (00:00) 20.4 7.78 (14:30) 4.44 (13:30) 0 0 0 0 0
05-08-2020 26.8 (17:20) 9.1 (00:00) 17.9 8.61 (15:30) 4.72 (14:00) 0 0 0 0 0
04-08-2020 24.2 (16:50) 12.3 (02:00) 18.3 11.67 (10:00) 6.11 (10:00) 0 0 0 0 0
03-08-2020 22.2 (13:20) 13.6 (23:50) 17.9 9.72 (13:40) 4.72 (13:10) 0 0 0 0 0
02-08-2020 27.4 (17:40) 15.4 (00:00) 21.4 9.72 (13:20) 5 (13:10) 0 0 0 0 0
01-08-2020 31.9 (16:40) 17.6 (00:00) 24.8 8.61 (17:00) 3.89 (18:00) 0 0 0 0 0
31-07-2020 32.4 (17:50) 17.1 (07:30) 24.8 7.22 (15:10) 3.61 (15:10) 0 0 0 0 0
30-07-2020 30.9 (15:50) 15.7 (00:00) 23.3 7.22 (17:00) 4.17 (13:40) 0 0 0 0 0
29-07-2020 29.4 (16:00) 15.5 (00:00) 22.4 6.94 (16:10) 3.89 (15:20) 0 0 0 0 0
28-07-2020 30.2 (17:50) 17.3 (00:00) 23.8 7.22 (15:20) 3.61 (15:30) 0 0 0 0 0
27-07-2020 30.2 (15:40) 15.4 (00:00) 22.8 7.5 (14:20) 4.44 (14:30) 0 0 0 0 0
26-07-2020 27.1 (17:50) 14.6 (00:00) 20.9 9.17 (17:10) 3.89 (17:40) 0 0 0 0 0
25-07-2020 25.7 (17:50) 12.6 (00:00) 19.2 6.39 (16:40) 3.33 (15:40) 0.2 0 0.2 0 0
24-07-2020 24.5 (13:20) 13.3 (00:00) 18.9 8.89 (13:00) 5 (13:30) 4.4 0 0.2 0 4.2
23-07-2020 26.8 (12:40) 14.6 (00:00) 20.7 8.89 (16:00) 5 (16:00) 2.8 0 0 2.8 0
22-07-2020 28.2 (15:50) 13.4 (00:00) 20.8 7.22 (14:10) 3.89 (16:50) 0 0 0 0 0
21-07-2020 27.7 (17:10) 13.6 (00:00) 20.7 8.06 (15:10) 5 (15:50) 3.4 0 0 3.2 0.2
20-07-2020 26.8 (16:20) 13 (00:00) 19.9 6.39 (14:40) 3.89 (17:20) 0 0 0 0 0
19-07-2020 25.8 (14:20) 12.5 (00:00) 19.1 11.94 (18:20) 6.67 (18:20) 8.8 0 0 0 8.8
18-07-2020 25.4 (16:40) 9.7 (00:00) 17.5 7.78 (14:40) 4.17 (14:30) 0 0 0 0 0
17-07-2020 23.6 (15:20) 10.1 (00:00) 16.9 8.61 (14:10) 4.72 (14:10) 0 0 0 0 0
16-07-2020 22.2 (14:40) 9.4 (00:00) 15.8 7.78 (13:20) 5 (12:50) 0 0 0 0 0
15-07-2020 19 (12:30) 9.5 (00:00) 14.3 6.94 (13:00) 3.61 (12:50) 0.6 0 0 0.4 0.2
14-07-2020 20.5 (13:30) 8.8 (00:00) 14.7 10 (13:30) 4.17 (13:10) 2.2 0 0.2 2 0

Gráficas

Temp. máximas Temp. mínimas Temp. medias Precipitaciones Rachas de viento máximas Velocidades máximas media en intervalos de 10 minutos

Datos horarios

Fecha y hora oficial Temperatura (ºC) Velocidad del viento (km/h) Dirección del viento Racha (km/h) Dirección de racha Precipitación (mm) Presión (hPa) Tendencia (hPa) Humedad (%)
2020-08-12 23:00:00 15.9 0 Calma 9 Oeste 0 -- -- 91
2020-08-12 22:00:00 16.6 2 Oeste 12 Oeste 0 -- -- 91
2020-08-12 21:00:00 17.9 3 Noroeste 9 Noroeste 0 -- -- 88
2020-08-12 20:00:00 19.6 3 Noroeste 10 Oeste 0 -- -- 86
2020-08-12 19:00:00 20.5 4 Sur 8 Sur 0 -- -- 81
2020-08-12 18:00:00 20.7 2 Sudoeste 11 Sudoeste 0 -- -- 78
2020-08-12 17:00:00 18.3 3 Oeste 19 Este 0 -- -- 85
2020-08-12 16:00:00 18 5 Oeste 19 Noroeste 4.8 -- -- 89
2020-08-12 15:00:00 21.2 2 Noroeste 13 Este 0 -- -- 67
2020-08-12 14:00:00 23.3 8 Este 24 Sudeste 0 -- -- 52
2020-08-12 13:00:00 23.8 9 Este 18 Este 0 -- -- 52
2020-08-12 12:00:00 19.8 5 Oeste 12 Norte 1.4 -- -- 78
2020-08-12 11:00:00 21.1 3 Sur 12 Sudoeste 0 -- -- 65
2020-08-12 10:00:00 17.7 4 Sudeste 11 Oeste 0 -- -- 82
2020-08-12 09:00:00 17.1 3 Noroeste 12 Noroeste 0 -- -- 68
2020-08-12 08:00:00 16.5 3 Norte 13 Noroeste 0 -- -- 63
2020-08-12 07:00:00 15.4 3 Este 13 Sudeste 0 -- -- 73
2020-08-12 06:00:00 15.5 3 Nordeste 9 Noroeste 0 -- -- 71
2020-08-12 05:00:00 15.9 2 Norte 12 Norte 0 -- -- 71
2020-08-12 04:00:00 16.5 2 Sudoeste 9 Noroeste 0 -- -- 76
2020-08-12 03:00:00 17.3 4 Noroeste 14 Norte 0 -- -- 83
2020-08-12 02:00:00 17 3 Oeste 8 Norte 0 -- -- 85
2020-08-12 01:00:00 17.3 2 Noroeste 8 Noroeste 0 -- -- 82
2020-08-12 00:00:00 18 0 Calma 9 Noroeste 0 -- -- 75
2020-08-11 23:00:00 18.7 4 Noroeste 11 Norte 0 -- -- 68
2020-08-11 22:00:00 20.3 2 Nordeste 13 Noroeste 0 -- -- 61
2020-08-11 21:00:00 22.1 7 Noroeste 12 Noroeste 0 -- -- 61
2020-08-11 20:00:00 25.1 0 Calma 11 Norte 0 -- -- 59
2020-08-11 19:00:00 25.8 10 Oeste 26 Sudoeste 0 -- -- 48
2020-08-11 18:00:00 27.4 13 Oeste 27 Noroeste 0 -- -- 41
2020-08-11 17:00:00 28.4 10 Oeste 23 Sudeste 0 -- -- 39
2020-08-11 16:00:00 29 6 Nordeste 22 Sudoeste 0 -- -- 38
2020-08-11 15:00:00 27.8 10 Este 25 Este 0 -- -- 46
2020-08-11 14:00:00 26.9 15 Este 29 Este 0 -- -- 50
2020-08-11 13:00:00 26 13 Este 23 Este 0 -- -- 52
2020-08-11 12:00:00 26.3 10 Este 15 Sudeste 0 -- -- 50
2020-08-11 11:00:00 26 5 Sudeste 13 Este 0 -- -- 48
2020-08-11 10:00:00 22.1 2 Sudoeste 4 Sudeste 0 -- -- 62
2020-08-11 09:00:00 19.1 2 Noroeste 11 Noroeste 0 -- -- 69
2020-08-11 08:00:00 17.6 10 Noroeste 14 Oeste 0 -- -- 69
2020-08-11 07:00:00 17.4 9 Noroeste 20 Oeste 0 -- -- 71
2020-08-11 06:00:00 17.2 3 Oeste 13 Noroeste 0 -- -- 80
2020-08-11 05:00:00 16.8 5 Noroeste 13 Oeste 0 -- -- 78
2020-08-11 04:00:00 16.6 7 Noroeste 15 Oeste 0 -- -- 77
2020-08-11 03:00:00 17 4 Noroeste 14 Noroeste 0 -- -- 72
2020-08-11 02:00:00 17.2 8 Noroeste 17 Noroeste 0 -- -- 67
2020-08-11 01:00:00 17.5 8 Noroeste 17 Noroeste 0 -- -- 60
2020-08-11 00:00:00 17.5 6 Noroeste 12 Noroeste 0 -- -- 63
2020-08-10 23:00:00 19 4 Este 19 Noroeste 0 -- -- 62
2020-08-10 22:00:00 19.4 6 Noroeste 13 Noroeste 0 -- -- 62
2020-08-10 21:00:00 21.5 3 Este 16 Noroeste 0 -- -- 60
2020-08-10 20:00:00 24.3 4 Noroeste 25 Oeste 0 -- -- 47
2020-08-10 19:00:00 25.3 13 Oeste 26 Oeste 0 -- -- 43
2020-08-10 18:00:00 27.1 14 Oeste 39 Oeste 0 -- -- 38
2020-08-10 17:00:00 24.7 7 Noroeste 35 Oeste 0 -- -- 45
2020-08-10 16:00:00 26.7 7 Oeste 23 Oeste 0 -- -- 41
2020-08-10 15:00:00 27.7 14 Oeste 30 Sudoeste 0 -- -- 41
2020-08-10 14:00:00 27.1 16 Sudoeste 28 Sudoeste 0 -- -- 43
2020-08-10 13:00:00 28.9 8 Sudeste 18 Este 0 -- -- 44
2020-08-10 12:00:00 27.3 7 Sudeste 13 Sudeste 0 -- -- 49
2020-08-10 11:00:00 24 2 Sudoeste 4 Sur 0 -- -- 65
2020-08-10 10:00:00 20.7 2 Sur 4 Noroeste 0 -- -- 77
2020-08-10 09:00:00 16.1 3 Oeste 12 Oeste 0 -- -- 82
2020-08-10 08:00:00 15.1 7 Noroeste 15 Oeste 0 -- -- 76
2020-08-10 07:00:00 14.4 5 Noroeste 14 Noroeste 0 -- -- 77
2020-08-10 06:00:00 14.6 8 Noroeste 14 Noroeste 0 -- -- 78
2020-08-10 05:00:00 14.3 3 Noroeste 9 Oeste 0 -- -- 84
2020-08-10 04:00:00 14.3 3 Nordeste 13 Noroeste 0 -- -- 86
2020-08-10 03:00:00 14.2 4 Oeste 9 Norte 0 -- -- 87
2020-08-10 02:00:00 14.3 3 Oeste 13 Noroeste 0 -- -- 87
2020-08-10 01:00:00 14.3 3 Oeste 11 Oeste 0 -- -- 88
2020-08-10 00:00:00 14.6 4 Noroeste 9 Oeste 0 -- -- 90
2020-08-09 23:00:00 15.1 5 Oeste 14 Oeste 0 -- -- 88
2020-08-09 22:00:00 14.7 11 Oeste 17 Oeste 0 -- -- 91
2020-08-09 21:00:00 14.9 5 Noroeste 17 Noroeste 0.2 -- -- 90
2020-08-09 20:00:00 15.1 5 Noroeste 13 Oeste 1.6 -- -- 92
2020-08-09 19:00:00 16.3 9 Oeste 44 Noroeste 1.6 -- -- 85
2020-08-09 18:00:00 16.7 23 Noroeste 41 Oeste 0.8 -- -- 81
2020-08-09 17:00:00 14.5 7 Oeste 22 Noroeste 0.8 -- -- 93
2020-08-09 16:00:00 13.4 9 Oeste 39 Oeste 8.4 -- -- 89
2020-08-09 15:00:00 22.7 11 Nordeste 40 Nordeste 0.8 -- -- 50
2020-08-09 14:00:00 28.5 17 Este 37 Este 0 -- -- 47
2020-08-09 13:00:00 29.8 14 Este 27 Este 0 -- -- 46
2020-08-09 12:00:00 29.3 8 Este 19 Este 0 -- -- 46
2020-08-09 11:00:00 27.2 3 Sudeste 8 Sudeste 0 -- -- 53
2020-08-09 10:00:00 24 2 Sudoeste 5 Sudeste 0 -- -- 62
2020-08-09 09:00:00 20.9 0 Calma 4 Noroeste 0 -- -- 68
2020-08-09 08:00:00 18.2 0 Calma 9 Oeste 0 -- -- 75
2020-08-09 07:00:00 18.6 5 Noroeste 13 Noroeste 0 -- -- 71
2020-08-09 06:00:00 18.1 0 Calma 12 Noroeste 0 -- -- 74
2020-08-09 05:00:00 19.5 9 Noroeste 14 Oeste 0 -- -- 67
2020-08-09 04:00:00 19.1 5 Noroeste 16 Noroeste 0 -- -- 68
2020-08-09 03:00:00 18.5 5 Noroeste 10 Noroeste 0 -- -- 71
2020-08-09 02:00:00 19.4 5 Noroeste 17 Noroeste 0 -- -- 69
2020-08-09 01:00:00 19.2 0 Calma 9 Noroeste 0 -- -- 72
2020-08-09 00:00:00 19.3 4 Noroeste 9 Noroeste 0 -- -- 73
2020-08-08 23:00:00 20.1 4 Noroeste 9 Noroeste 0 -- -- 72
2020-08-08 22:00:00 20.3 0 Calma 6 Norte 0 -- -- 75
2020-08-08 21:00:00 21.6 3 Sudeste 11 Noroeste 0 -- -- 83
2020-08-08 20:00:00 22.3 5 Noroeste 9 Oeste 0 -- -- 74
2020-08-08 19:00:00 22.6 3 Este 13 Norte 0 -- -- 79
2020-08-08 18:00:00 25.2 5 Oeste 19 Noroeste 0.4 -- -- 66
2020-08-08 17:00:00 30 9 Este 27 Este 0 -- -- 39
2020-08-08 16:00:00 31.2 12 Este 31 Este 0 -- -- 37
2020-08-08 15:00:00 32.1 12 Este 26 Este 0 -- -- 37
2020-08-08 14:00:00 31.1 11 Sudeste 22 Este 0 -- -- 42
2020-08-08 13:00:00 29.9 9 Este 18 Este 0 -- -- 43
2020-08-08 12:00:00 26.8 3 Sur 6 Sudoeste 0 -- -- 48
2020-08-08 11:00:00 22.5 0 Calma 5 Sudeste 0 -- -- 63
2020-08-08 10:00:00 20.5 0 Calma 4 Noroeste 0 -- -- 69
2020-08-08 09:00:00 19.7 0 Calma 5 Noroeste 0 -- -- 65
2020-08-08 08:00:00 19.6 3 Noroeste 9 Noroeste 0 -- -- 58
2020-08-08 07:00:00 19 4 Norte 6 Sudeste 0 -- -- 59
2020-08-08 06:00:00 19.3 4 Noroeste 11 Oeste 0 -- -- 59
2020-08-08 05:00:00 18.7 4 Noroeste 9 Noroeste 0 -- -- 58
2020-08-08 04:00:00 18.7 4 Este 10 Noroeste 0 -- -- 63
2020-08-08 03:00:00 18.9 0 Calma 9 Noroeste 0 -- -- 61
2020-08-08 02:00:00 18.7 0 Calma 7 Noroeste 0 -- -- 66
2020-08-08 01:00:00 19.7 4 Noroeste 12 Norte 0 -- -- 62
2020-08-08 00:00:00 20.8 5 Noroeste 15 Noroeste 0 -- -- 66
2020-08-07 23:00:00 21.6 8 Noroeste 17 Noroeste 0 -- -- 68
2020-08-07 22:00:00 22.8 6 Noroeste 12 Noroeste 0 -- -- 66
2020-08-07 21:00:00 25.4 2 Sudoeste 12 Este 0 -- -- 61
2020-08-07 20:00:00 28.4 7 Este 18 Este 0 -- -- 49
2020-08-07 19:00:00 29.7 10 Este 18 Este 0 -- -- 44
2020-08-07 18:00:00 29.9 7 Este 20 Sudeste 0 -- -- 43
2020-08-07 17:00:00 29.8 8 Este 20 Este 0 -- -- 45
2020-08-07 16:00:00 30.8 11 Este 24 Este 0 -- -- 44
2020-08-07 15:00:00 28.4 11 Este 28 Este 0 -- -- 49
2020-08-07 14:00:00 30.1 14 Este 30 Este 0 -- -- 46
2020-08-07 13:00:00 29.4 17 Este 29 Este 0 -- -- 49
2020-08-07 12:00:00 28.8 14 Este 23 Este 0 -- -- 42
2020-08-07 11:00:00 26.2 4 Sudeste 9 Sudeste 0 -- -- 50
2020-08-07 10:00:00 22.8 0 Calma 5 Sudeste 0 -- -- 60
2020-08-07 09:00:00 18.9 0 Calma 3 Sudoeste 0 -- -- 70
2020-08-07 08:00:00 15.6 0 Calma 6 Oeste 0 -- -- 76
2020-08-07 07:00:00 15.3 3 Noroeste 6 Noroeste 0 -- -- 74
2020-08-07 06:00:00 15.5 3 Noroeste 10 Oeste 0 -- -- 74
2020-08-07 05:00:00 15.7 6 Noroeste 10 Noroeste 0 -- -- 75
2020-08-07 04:00:00 16.1 0 Calma 8 Oeste 0 -- -- 80
2020-08-07 03:00:00 17 3 Oeste 14 Noroeste 0 -- -- 79
2020-08-07 02:00:00 17.2 5 Noroeste 12 Noroeste 0 -- -- 80
2020-08-07 01:00:00 17.7 3 Noroeste 12 Noroeste 0 -- -- 79
2020-08-07 00:00:00 18.5 6 Noroeste 14 Noroeste 0 -- -- 76
2020-08-06 23:00:00 19.4 5 Noroeste 9 Noroeste 0 -- -- 73
2020-08-06 22:00:00 21 4 Noroeste 9 Noroeste 0 -- -- 68
2020-08-06 21:00:00 23.8 2 Sudeste 12 Sudeste 0 -- -- 60
2020-08-06 20:00:00 27 8 Este 18 Sudeste 0 -- -- 50
2020-08-06 19:00:00 28.8 9 Este 19 Este 0 -- -- 46
2020-08-06 18:00:00 29.4 8 Este 22 Este 0 -- -- 46
2020-08-06 17:00:00 29.5 13 Este 28 Este 0 -- -- 46
2020-08-06 16:00:00 29.3 13 Este 26 Este 0 -- -- 45
2020-08-06 15:00:00 28.7 14 Este 28 Este 0 -- -- 46
2020-08-06 14:00:00 27.9 13 Este 26 Este 0 -- -- 48
2020-08-06 13:00:00 27.2 14 Este 26 Este 0 -- -- 48
2020-08-06 12:00:00 26 12 Este 19 Este 0 -- -- 40
2020-08-06 11:00:00 23.2 5 Sudeste 10 Sudeste 0 -- -- 47
2020-08-06 10:00:00 19.9 2 Sur 5 Sudoeste 0 -- -- 56
2020-08-06 09:00:00 16.4 2 Sudeste 4 Sudeste 0 -- -- 62
2020-08-06 08:00:00 12 0 Calma 8 Noroeste 0 -- -- 68
2020-08-06 07:00:00 11.3 3 Oeste 9 Norte 0 -- -- 73
2020-08-06 06:00:00 11.4 3 Oeste 10 Oeste 0 -- -- 77
2020-08-06 05:00:00 12.4 0 Calma 15 Noroeste 0 -- -- 73
2020-08-06 04:00:00 12.7 9 Noroeste 15 Noroeste 0 -- -- 74
2020-08-06 03:00:00 13.5 8 Noroeste 17 Noroeste 0 -- -- 80
2020-08-06 02:00:00 14 6 Noroeste 13 Noroeste 0 -- -- 83
2020-08-06 01:00:00 14.6 4 Noroeste 10 Noroeste 0 -- -- 84
2020-08-06 00:00:00 15.7 4 Noroeste 12 Noroeste 0 -- -- 82
2020-08-05 23:00:00 16.8 5 Noroeste 10 Noroeste 0 -- -- 80
2020-08-05 22:00:00 18.8 3 Sudeste 6 Sur 0 -- -- 74
2020-08-05 21:00:00 21 2 Sudeste 12 Este 0 -- -- 65
2020-08-05 20:00:00 24.4 8 Este 17 Este 0 -- -- 56
2020-08-05 19:00:00 25.3 7 Sudeste 19 Este 0 -- -- 53
2020-08-05 18:00:00 26.4 9 Este 23 Sudeste 0 -- -- 50
2020-08-05 17:00:00 26.6 9 Este 31 Este 0 -- -- 50
2020-08-05 16:00:00 26.3 17 Este 31 Este 0 -- -- 51
2020-08-05 15:00:00 25.9 15 Este 26 Este 0 -- -- 52
2020-08-05 14:00:00 25.2 17 Este 28 Este 0 -- -- 52
2020-08-05 13:00:00 24.5 14 Este 24 Este 0 -- -- 43
2020-08-05 12:00:00 22.9 9 Sudeste 20 Este 0 -- -- 49
2020-08-05 11:00:00 20.1 4 Sudeste 10 Este 0 -- -- 54
2020-08-05 10:00:00 17.2 4 Sudeste 8 Sudeste 0 -- -- 56
2020-08-05 09:00:00 13.8 3 Sudeste 8 Oeste 0 -- -- 62
2020-08-05 08:00:00 9.4 0 Calma 6 Noroeste 0 -- -- 78
2020-08-05 07:00:00 9.4 5 Noroeste 9 Noroeste 0 -- -- 73
2020-08-05 06:00:00 9.9 4 Noroeste 11 Oeste 0 -- -- 72
2020-08-05 05:00:00 11 3 Este 12 Oeste 0 -- -- 80
2020-08-05 04:00:00 11.6 6 Noroeste 14 Oeste 0 -- -- 79
2020-08-05 03:00:00 12.5 6 Noroeste 15 Noroeste 0 -- -- 78
2020-08-05 02:00:00 13.6 7 Noroeste 11 Noroeste 0 -- -- 85
2020-08-05 01:00:00 14.7 4 Noroeste 9 Noroeste 0 -- -- 84
2020-08-05 00:00:00 16.4 3 Este 5 Este 0 -- -- 84
2020-08-04 23:00:00 16.8 3 Noroeste 8 Este 0 -- -- 80
2020-08-04 22:00:00 17.6 5 Este 19 Este 0 -- -- 77
2020-08-04 21:00:00 18.8 11 Este 22 Este 0 -- -- 76
2020-08-04 20:00:00 21.1 13 Este 24 Este 0 -- -- 67
2020-08-04 19:00:00 22.2 10 Sudeste 25 Sudeste 0 -- -- 60
2020-08-04 18:00:00 22.2 9 Este 32 Este 0 -- -- 54
2020-08-04 17:00:00 24 15 Este 29 Este 0 -- -- 49
2020-08-04 16:00:00 23.8 15 Este 33 Este 0 -- -- 49
2020-08-04 15:00:00 23.5 17 Este 32 Este 0 -- -- 49
2020-08-04 14:00:00 23.4 15 Este 32 Este 0 -- -- 50
2020-08-04 13:00:00 23 8 Sudeste 33 Oeste 0 -- -- 36
2020-08-04 12:00:00 21.3 15 Noroeste 34 Oeste 0 -- -- 31
2020-08-04 11:00:00 19.7 17 Oeste 40 Oeste 0 -- -- 34
2020-08-04 10:00:00 17.5 22 Oeste 42 Sudoeste 0 -- -- 42
2020-08-04 09:00:00 16.2 18 Oeste 30 Sudoeste 0 -- -- 46
2020-08-04 08:00:00 13.9 14 Oeste 27 Oeste 0 -- -- 54
2020-08-04 07:00:00 13.9 14 Noroeste 29 Oeste 0 -- -- 54
2020-08-04 06:00:00 14.3 14 Oeste 25 Oeste 0 -- -- 52
2020-08-04 05:00:00 14.3 8 Noroeste 33 Sudoeste 0 -- -- 52
2020-08-04 04:00:00 15.1 17 Oeste 35 Sudoeste 0 -- -- 50
2020-08-04 03:00:00 14.8 11 Oeste 28 Oeste 0 -- -- 52
2020-08-04 02:00:00 12.3 2 Este 6 Sudeste 0 -- -- 79
2020-08-04 01:00:00 13.1 3 Este 8 Noroeste 0 -- -- 79
2020-08-04 00:00:00 13.6 2 Este 8 Noroeste 0 -- -- 86
2020-08-03 23:00:00 14.8 2 Sur 5 Nordeste 0 -- -- 86
2020-08-03 22:00:00 16 0 Calma 6 Oeste 0 -- -- 82
2020-08-03 21:00:00 17.1 2 Sudoeste 20 Este 0 -- -- 78
2020-08-03 20:00:00 18.3 12 Este 19 Este 0 -- -- 74
2020-08-03 19:00:00 19.5 6 Este 14 Este 0 -- -- 69
2020-08-03 18:00:00 20.3 8 Este 15 Este 0 -- -- 66
2020-08-03 17:00:00 20.7 5 Este 19 Este 0 -- -- 64
2020-08-03 16:00:00 20.5 7 Este 24 Este 0 -- -- 64
2020-08-03 15:00:00 20.1 13 Este 24 Este 0 -- -- 65
2020-08-03 14:00:00 19.9 15 Este 35 Este 0 -- -- 64
2020-08-03 13:00:00 21.9 13 Este 28 Este 0 -- -- 61
2020-08-03 12:00:00 21.2 14 Este 28 Este 0 -- -- 65
2020-08-03 11:00:00 19.5 12 Este 22 Este 0 -- -- 72
2020-08-03 10:00:00 16.9 11 Este 24 Este 0 -- -- 81
2020-08-03 09:00:00 16.1 5 Sudeste 10 Sudeste 0 -- -- 82
2020-08-03 08:00:00 14.9 3 Sudeste 12 Este 0 -- -- 86
2020-08-03 07:00:00 15.7 4 Este 13 Este 0 -- -- 88
2020-08-03 06:00:00 16 3 Oeste 6 Este 0 -- -- 90
2020-08-03 05:00:00 16.4 3 Noroeste 6 Norte 0 -- -- 89
2020-08-03 04:00:00 17.1 2 Noroeste 5 Sur 0 -- -- 87
2020-08-03 03:00:00 17.7 0 Calma 5 Este 0 -- -- 89
2020-08-03 02:00:00 18 2 Sudeste 8 Oeste 0 -- -- 90
2020-08-03 01:00:00 18.2 0 Calma 10 Sudeste 0 -- -- 88
2020-08-03 00:00:00 18.7 4 Sudeste 7 Este 0 -- -- 86
2020-08-02 23:00:00 19.6 4 Sur 14 Este 0 -- -- 82
2020-08-02 22:00:00 20.3 4 Este 14 Este 0 -- -- 79
2020-08-02 21:00:00 21.3 7 Este 14 Este 0 -- -- 69
2020-08-02 20:00:00 22.8 9 Este 21 Este 0 -- -- 64
2020-08-02 19:00:00 24.6 7 Este 17 Sudeste 0 -- -- 55
2020-08-02 18:00:00 26.4 8 Sudoeste 22 Oeste 0 -- -- 48
2020-08-02 17:00:00 26.8 8 Sudoeste 28 Sudeste 0 -- -- 50
2020-08-02 16:00:00 24.7 11 Nordeste 25 Este 0 -- -- 60
2020-08-02 15:00:00 24.6 17 Este 33 Este 0 -- -- 60
2020-08-02 14:00:00 26.1 12 Este 35 Este 0 -- -- 57
2020-08-02 13:00:00 25.1 15 Este 27 Este 0 -- -- 61
2020-08-02 12:00:00 24.7 14 Este 24 Este 0 -- -- 64
2020-08-02 11:00:00 23.3 11 Este 18 Este 0 -- -- 67
2020-08-02 10:00:00 21 4 Sur 9 Este 0 -- -- 75
2020-08-02 09:00:00 18.8 3 Sudeste 6 Este 0 -- -- 74
2020-08-02 08:00:00 15.6 0 Calma 4 Oeste 0 -- -- 80
2020-08-02 07:00:00 15.6 0 Calma 5 Noroeste 0 -- -- 80
2020-08-02 06:00:00 16.5 0 Calma 10 Noroeste 0 -- -- 78
2020-08-02 05:00:00 17 5 Noroeste 15 Noroeste 0 -- -- 81
2020-08-02 04:00:00 16.9 5 Noroeste 9 Noroeste 0 -- -- 82
2020-08-02 03:00:00 17.4 3 Noroeste 8 Noroeste 0 -- -- 78
2020-08-02 02:00:00 18.2 4 Noroeste 10 Noroeste 0 -- -- 75
2020-08-02 01:00:00 19.3 2 Este 5 Este 0 -- -- 76
2020-08-02 00:00:00 20.5 0 Calma 10 Noroeste 0 -- -- 74
2020-08-01 23:00:00 21.6 7 Noroeste 13 Noroeste 0 -- -- 72
2020-08-01 22:00:00 23.1 3 Norte 9 Noroeste 0 -- -- 70
2020-08-01 21:00:00 25.1 5 Este 24 Este 0 -- -- 66
2020-08-01 20:00:00 28.3 12 Este 23 Este 0 -- -- 56
2020-08-01 19:00:00 29.5 9 Sur 22 Sudeste 0 -- -- 43
2020-08-01 18:00:00 30.8 14 Oeste 25 Sudoeste 0 -- -- 40
2020-08-01 17:00:00 31.3 12 Sudeste 31 Este 0 -- -- 39
2020-08-01 16:00:00 31.4 5 Sur 24 Este 0 -- -- 40
2020-08-01 15:00:00 31.3 8 Sur 26 Este 0 -- -- 35
2020-08-01 14:00:00 31.3 12 Este 21 Sudeste 0 -- -- 41
2020-08-01 13:00:00 30.8 8 Sudeste 18 Este 0 -- -- 43
2020-08-01 12:00:00 29.6 10 Este 18 Este 0 -- -- 44
2020-08-01 11:00:00 27.1 4 Sudeste 8 Sudeste 0 -- -- 50
2020-08-01 10:00:00 24 0 Calma 4 Sudeste 0 -- -- 58
2020-08-01 09:00:00 21.5 3 Sudeste 8 Oeste 0 -- -- 59
2020-08-01 08:00:00 18.3 3 Noroeste 13 Noroeste 0 -- -- 64
2020-08-01 07:00:00 17.7 7 Noroeste 14 Noroeste 0 -- -- 64
2020-08-01 06:00:00 18.4 9 Noroeste 16 Noroeste 0 -- -- 61
2020-08-01 05:00:00 17.9 6 Noroeste 12 Noroeste 0 -- -- 62
2020-08-01 04:00:00 18.2 5 Noroeste 10 Oeste 0 -- -- 60
2020-08-01 03:00:00 18.5 5 Noroeste 13 Noroeste 0 -- -- 61
2020-08-01 02:00:00 19.5 5 Noroeste 10 Oeste 0 -- -- 60
2020-08-01 01:00:00 20.5 6 Noroeste 16 Noroeste 0 -- -- 62
2020-08-01 00:00:00 21.1 8 Noroeste 18 Noroeste 0 -- -- 63
2020-07-31 23:00:00 21.5 6 Noroeste 15 Oeste 0 -- -- 63
2020-07-31 22:00:00 23.2 6 Norte 11 Noroeste 0 -- -- 56
2020-07-31 21:00:00 26.3 2 Sudeste 8 Noroeste 0 -- -- 50
2020-07-31 20:00:00 29.8 4 Sudeste 20 Sudoeste 0 -- -- 43
2020-07-31 19:00:00 31.5 6 Oeste 18 Sur 0 -- -- 33
2020-07-31 18:00:00 32.2 6 Sur 19 Sudeste 0 -- -- 32
2020-07-31 17:00:00 32.3 9 Este 19 Este 0 -- -- 33
2020-07-31 16:00:00 31.6 7 Este 26 Este 0 -- -- 35
2020-07-31 15:00:00 31.3 9 Este 23 Este 0 -- -- 37
2020-07-31 14:00:00 31 10 Este 19 Este 0 -- -- 37
2020-07-31 13:00:00 30.3 10 Sudeste 20 Este 0 -- -- 39
2020-07-31 12:00:00 29.4 8 Este 14 Sudeste 0 -- -- 41
2020-07-31 11:00:00 26.4 3 Sudoeste 9 Este 0 -- -- 49
2020-07-31 10:00:00 23.5 3 Sudoeste 7 Oeste 0 -- -- 60
2020-07-31 09:00:00 20.9 5 Noroeste 12 Noroeste 0 -- -- 52
2020-07-31 08:00:00 17.3 2 Norte 13 Noroeste 0 -- -- 59
2020-07-31 07:00:00 17.6 2 Oeste 11 Noroeste 0 -- -- 60
2020-07-31 06:00:00 18.6 4 Noroeste 16 Noroeste 0 -- -- 56
2020-07-31 05:00:00 18.8 5 Noroeste 12 Noroeste 0 -- -- 57
2020-07-31 04:00:00 18.2 4 Noroeste 11 Norte 0 -- -- 64
2020-07-31 03:00:00 17.9 0 Calma 12 Noroeste 0 -- -- 64
2020-07-31 02:00:00 17.9 3 Noroeste 9 Noroeste 0 -- -- 62
2020-07-31 01:00:00 18.5 2 Oeste 9 Noroeste 0 -- -- 63
2020-07-31 00:00:00 18.8 4 Oeste 12 Noroeste 0 -- -- 65
2020-07-30 23:00:00 20.5 4 Noroeste 18 Noroeste 0 -- -- 63
2020-07-30 22:00:00 22 3 Norte 11 Noroeste 0 -- -- 61
2020-07-30 21:00:00 24.7 7 Noroeste 13 Noroeste 0 -- -- 51
2020-07-30 20:00:00 29 2 Sudeste 15 Sudoeste 0 -- -- 42
2020-07-30 19:00:00 30.1 3 Este 19 Este 0 -- -- 37
2020-07-30 18:00:00 30.5 11 Este 21 Este 0 -- -- 35
2020-07-30 17:00:00 30.6 14 Este 26 Este 0 -- -- 35
2020-07-30 16:00:00 30.9 10 Sudeste 21 Este 0 -- -- 36
2020-07-30 15:00:00 30.7 6 Sudeste 24 Sudeste 0 -- -- 39
2020-07-30 14:00:00 29.8 14 Este 24 Este 0 -- -- 43
2020-07-30 13:00:00 29.5 10 Este 21 Este 0 -- -- 44
2020-07-30 12:00:00 28.2 9 Este 17 Este 0 -- -- 47
2020-07-30 11:00:00 25.4 4 Sudeste 8 Sudeste 0 -- -- 47
2020-07-30 10:00:00 22.5 5 Sudeste 8 Este 0 -- -- 57
2020-07-30 09:00:00 19.6 3 Sudeste 9 Noroeste 0 -- -- 65
2020-07-30 08:00:00 16.5 2 Noroeste 7 Oeste 0 -- -- 64
2020-07-30 07:00:00 16.1 2 Norte 12 Noroeste 0 -- -- 64
2020-07-30 06:00:00 16.7 7 Noroeste 13 Noroeste 0 -- -- 63
2020-07-30 05:00:00 16.9 2 Oeste 15 Noroeste 0 -- -- 63
2020-07-30 04:00:00 17.9 7 Noroeste 14 Oeste 0 -- -- 65
2020-07-30 03:00:00 17.9 4 Noroeste 9 Noroeste 0 -- -- 78
2020-07-30 02:00:00 18 5 Noroeste 11 Noroeste 0 -- -- 76
2020-07-30 01:00:00 18.3 6 Noroeste 13 Noroeste 0 -- -- 74
2020-07-30 00:00:00 19.1 3 Noroeste 8 Oeste 0 -- -- 70
2020-07-29 23:00:00 20.1 4 Noroeste 11 Noroeste 0 -- -- 66
2020-07-29 22:00:00 21.5 6 Noroeste 16 Noroeste 0 -- -- 60
2020-07-29 21:00:00 23.8 5 Norte 13 Noroeste 0 -- -- 55
2020-07-29 20:00:00 27.7 2 Sudeste 11 Sur 0 -- -- 50
2020-07-29 19:00:00 28.9 5 Sudoeste 20 Este 0 -- -- 42
2020-07-29 18:00:00 29 8 Sudeste 23 Este 0 -- -- 45
2020-07-29 17:00:00 29.3 10 Este 25 Este 0 -- -- 43
2020-07-29 16:00:00 29.4 11 Este 25 Este 0 -- -- 44
2020-07-29 15:00:00 29.3 10 Este 19 Este 0 -- -- 45
2020-07-29 14:00:00 28.3 10 Sudeste 21 Este 0 -- -- 50
2020-07-29 13:00:00 27.8 9 Este 21 Este 0 -- -- 53
2020-07-29 12:00:00 26.1 6 Sudeste 15 Sudeste 0 -- -- 56
2020-07-29 11:00:00 24.8 6 Sudeste 12 Este 0 -- -- 55
2020-07-29 10:00:00 22.7 3 Sudeste 6 Este 0 -- -- 58
2020-07-29 09:00:00 19.7 0 Calma 4 Este 0 -- -- 66
2020-07-29 08:00:00 16.6 3 Norte 9 Noroeste 0 -- -- 69
2020-07-29 07:00:00 15.5 0 Calma 4 Noroeste 0 -- -- 68
2020-07-29 06:00:00 16.3 2 Sudoeste 12 Noroeste 0 -- -- 64
2020-07-29 05:00:00 16.4 6 Noroeste 11 Noroeste 0 -- -- 63
2020-07-29 04:00:00 16.5 4 Oeste 12 Noroeste 0 -- -- 64
2020-07-29 03:00:00 16.8 6 Noroeste 11 Noroeste 0 -- -- 63
2020-07-29 02:00:00 17.6 6 Noroeste 14 Noroeste 0 -- -- 64
2020-07-29 01:00:00 18.4 6 Noroeste 12 Noroeste 0 -- -- 67
2020-07-29 00:00:00 19.6 10 Noroeste 16 Oeste 0 -- -- 70
2020-07-28 23:00:00 20.5 7 Noroeste 14 Noroeste 0 -- -- 68
2020-07-28 22:00:00 21.6 8 Noroeste 13 Noroeste 0 -- -- 64
2020-07-28 21:00:00 24.6 3 Nordeste 8 Noroeste 0 -- -- 57
2020-07-28 20:00:00 27.7 3 Oeste 12 Oeste 0 -- -- 46
2020-07-28 19:00:00 29.5 4 Sudoeste 23 Oeste 0 -- -- 41
2020-07-28 18:00:00 30.1 7 Oeste 24 Oeste 0 -- -- 36
2020-07-28 17:00:00 29.8 7 Sur 22 Sur 0 -- -- 38
2020-07-28 16:00:00 29.9 9 Sur 26 Sudeste 0 -- -- 35
2020-07-28 15:00:00 29.7 11 Sur 23 Sur 0 -- -- 33
2020-07-28 14:00:00 28.7 8 Este 17 Sudeste 0 -- -- 43
2020-07-28 13:00:00 27.9 8 Sudeste 19 Este 0 -- -- 49
2020-07-28 12:00:00 27.4 9 Este 20 Este 0 -- -- 52
2020-07-28 11:00:00 26.2 9 Este 14 Este 0 -- -- 52
2020-07-28 10:00:00 23.9 3 Sudeste 10 Noroeste 0 -- -- 63
2020-07-28 09:00:00 18.9 3 Sur 5 Nordeste 0 -- -- 77
2020-07-28 08:00:00 17.8 3 Sudeste 10 Noroeste 0 -- -- 80
2020-07-28 07:00:00 17.3 4 Oeste 16 Norte 0 -- -- 81
2020-07-28 06:00:00 18.2 0 Calma 12 Noroeste 0 -- -- 76
2020-07-28 05:00:00 18.4 0 Calma 11 Noroeste 0 -- -- 76
2020-07-28 04:00:00 18.8 7 Noroeste 10 Norte 0 -- -- 76
2020-07-28 03:00:00 19.4 6 Noroeste 23 Este 0 -- -- 76
2020-07-28 02:00:00 19.9 4 Noroeste 15 Noroeste 0 -- -- 72
2020-07-28 01:00:00 19.8 4 Oeste 14 Noroeste 0 -- -- 74
2020-07-28 00:00:00 20.3 6 Noroeste 14 Noroeste 0 -- -- 76
2020-07-27 23:00:00 21.2 5 Noroeste 10 Noroeste 0 -- -- 75
2020-07-27 22:00:00 22.9 5 Noroeste 10 Oeste 0 -- -- 70
2020-07-27 21:00:00 25.2 6 Noroeste 13 Este 0 -- -- 63
2020-07-27 20:00:00 28.4 6 Este 16 Sudeste 0 -- -- 52
2020-07-27 19:00:00 29.9 6 Este 17 Este 0 -- -- 52
2020-07-27 18:00:00 30.2 9 Este 23 Sudeste 0 -- -- 53
2020-07-27 17:00:00 30 13 Este 26 Este 0 -- -- 53
2020-07-27 16:00:00 30.1 15 Este 26 Este 0 -- -- 51
2020-07-27 15:00:00 29.6 10 Este 27 Este 0 -- -- 54
2020-07-27 14:00:00 29.1 13 Este 23 Este 0 -- -- 57
2020-07-27 13:00:00 28.1 9 Sudeste 17 Este 0 -- -- 62
2020-07-27 12:00:00 26.4 7 Sudeste 16 Sudeste 0 -- -- 66
2020-07-27 09:00:00 18.6 0 Calma 4 Oeste 0 -- -- 83
2020-07-27 08:00:00 16.2 0 Calma 6 Noroeste 0 -- -- 88
2020-07-27 07:00:00 15.4 2 Noroeste 6 Oeste 0 -- -- 89
2020-07-27 06:00:00 15.7 3 Este 6 Norte 0 -- -- 93
2020-07-27 05:00:00 15.6 2 Oeste 8 Norte 0 -- -- 92
2020-07-27 04:00:00 16 4 Noroeste 9 Norte 0 -- -- 92
2020-07-27 03:00:00 16.3 5 Noroeste 10 Noroeste 0 -- -- 92
2020-07-27 02:00:00 17.1 5 Noroeste 12 Oeste 0 -- -- 90
2020-07-27 01:00:00 17.6 3 Noroeste 10 Noroeste 0 -- -- 89
2020-07-27 00:00:00 18.5 4 Noroeste 7 Noroeste 0 -- -- 87
2020-07-26 23:00:00 20 0 Calma 6 Este 0 -- -- 83
2020-07-26 22:00:00 21.2 2 Este 13 Sudeste 0 -- -- 78
2020-07-26 21:00:00 22.1 4 Este 20 Este 0 -- -- 74
2020-07-26 20:00:00 24.1 9 Este 20 Este 0 -- -- 68
2020-07-26 19:00:00 25.4 7 Este 21 Sudeste 0 -- -- 63
2020-07-26 18:00:00 26.6 9 Sudeste 33 Este 0 -- -- 55
2020-07-26 17:00:00 26.5 10 Este 22 Este 0 -- -- 56
2020-07-26 16:00:00 26.4 12 Este 22 Sudeste 0 -- -- 57
2020-07-26 15:00:00 26.3 8 Sur 18 Sur 0 -- -- 59
2020-07-26 14:00:00 25.5 8 Sur 22 Sur 0 -- -- 63
2020-07-26 13:00:00 25.6 6 Sur 15 Sudeste 0 -- -- 61
2020-07-26 12:00:00 24.9 6 Sudeste 14 Este 0 -- -- 65
2020-07-26 11:00:00 23.1 6 Sudeste 12 Sudeste 0 -- -- 67
2020-07-26 10:00:00 20.8 4 Sudeste 8 Este 0 -- -- 73
2020-07-26 09:00:00 18.4 0 Calma 4 Sudeste 0 -- -- 80
2020-07-26 08:00:00 15.3 2 Sudeste 11 Oeste 0 -- -- 86
2020-07-26 07:00:00 14.6 3 Oeste 10 Noroeste 0 -- -- 86
2020-07-26 06:00:00 15.2 4 Noroeste 15 Noroeste 0 -- -- 84
2020-07-26 05:00:00 14.6 6 Noroeste 13 Noroeste 0 -- -- 87
2020-07-26 04:00:00 15.1 5 Noroeste 14 Noroeste 0 -- -- 84
2020-07-26 03:00:00 15.5 8 Noroeste 13 Oeste 0 -- -- 84
2020-07-26 02:00:00 16.1 7 Noroeste 15 Noroeste 0 -- -- 85
2020-07-26 01:00:00 16.4 6 Noroeste 12 Noroeste 0 -- -- 86
2020-07-26 00:00:00 16.9 4 Noroeste 10 Noroeste 0 -- -- 86
2020-07-25 23:00:00 17.9 5 Noroeste 12 Noroeste 0 -- -- 83
2020-07-25 22:00:00 19.2 5 Noroeste 9 Noroeste 0 -- -- 78
2020-07-25 21:00:00 22.5 3 Este 14 Oeste 0 -- -- 70
2020-07-25 20:00:00 24.6 6 Sudoeste 14 Sudeste 0 -- -- 55
2020-07-25 19:00:00 24.9 3 Norte 13 Sudeste 0 -- -- 54
2020-07-25 18:00:00 25.7 4 Sudeste 15 Este 0 -- -- 54
2020-07-25 17:00:00 24.3 9 Este 23 Sur 0 -- -- 63
2020-07-25 16:00:00 23.9 6 Este 22 Este 0 -- -- 67
2020-07-25 15:00:00 24.7 10 Este 21 Este 0 -- -- 69
2020-07-25 14:00:00 23.2 9 Este 20 Este 0 -- -- 70
2020-07-25 13:00:00 21.8 9 Este 17 Este 0 -- -- 74
2020-07-25 12:00:00 19.3 7 Sudeste 12 Sudeste 0 -- -- 82
2020-07-25 11:00:00 18 6 Sudeste 11 Este 0.2 -- -- 87
2020-07-25 10:00:00 17.4 5 Sudeste 10 Este 0 -- -- 87
2020-07-25 09:00:00 15.6 0 Calma 4 Este 0 -- -- 90
2020-07-25 08:00:00 13.1 3 Nordeste 10 Noroeste 0 -- -- 95
2020-07-25 07:00:00 12.6 5 Noroeste 9 Noroeste 0 -- -- 97
2020-07-25 06:00:00 12.9 0 Calma 10 Noroeste 0 -- -- 96
2020-07-25 05:00:00 13.2 4 Noroeste 9 Noroeste 0 -- -- 95
2020-07-25 04:00:00 13.6 5 Noroeste 10 Noroeste 0 -- -- 96
2020-07-25 03:00:00 14.1 4 Noroeste 9 Noroeste 0 -- -- 95
2020-07-25 02:00:00 14.8 2 Nordeste 5 Noroeste 0 -- -- 95
2020-07-25 01:00:00 15.5 3 Oeste 8 Noroeste 0 -- -- 94
2020-07-25 00:00:00 16.5 3 Oeste 6 Noroeste 0 -- -- 95
2020-07-24 23:00:00 16.7 3 Norte 5 Nordeste 0 -- -- 95
2020-07-24 22:00:00 17.1 2 Noroeste 7 Oeste 0 -- -- 94
2020-07-24 21:00:00 17.4 0 Calma 10 Sudoeste 0.6 -- -- 92
2020-07-24 20:00:00 18.3 0 Calma 8 Este 3.6 -- -- 90
2020-07-24 19:00:00 19.7 6 Sudeste 14 Este 0 -- -- 80
2020-07-24 18:00:00 21.3 7 Sudeste 26 Este 0 -- -- 77
2020-07-24 17:00:00 23.3 4 Este 21 Este 0 -- -- 69
2020-07-24 16:00:00 23.7 8 Este 24 Este 0 -- -- 62
2020-07-24 15:00:00 23.7 14 Este 29 Este 0 -- -- 59
2020-07-24 14:00:00 23.8 14 Este 32 Este 0 -- -- 59
2020-07-24 13:00:00 24.3 18 Este 32 Este 0 -- -- 59
2020-07-24 12:00:00 24 14 Este 25 Este 0 -- -- 59
2020-07-24 11:00:00 22.7 10 Este 18 Este 0 -- -- 56
2020-07-24 10:00:00 20.5 6 Este 12 Este 0 -- -- 69
2020-07-24 09:00:00 16.8 3 Oeste 6 Sudeste 0 -- -- 84
2020-07-24 08:00:00 16.1 3 Nordeste 30 Oeste 0 -- -- 81
2020-07-24 07:00:00 15.5 17 Oeste 32 Oeste 0.2 -- -- 80
2020-07-24 06:00:00 13.9 2 Noroeste 11 Noroeste 0 -- -- 87
2020-07-24 05:00:00 13.9 4 Noroeste 9 Noroeste 0 -- -- 86
2020-07-24 04:00:00 13.6 3 Noroeste 6 Norte 0 -- -- 91
2020-07-24 03:00:00 13.9 2 Sudoeste 5 Sur 0 -- -- 90
2020-07-24 02:00:00 14 2 Oeste 5 Oeste 0 -- -- 88
2020-07-24 01:00:00 14.3 0 Calma 12 Oeste 0 -- -- 88
2020-07-24 00:00:00 14.6 7 Noroeste 14 Oeste 0 -- -- 86
2020-07-23 23:00:00 16.6 5 Norte 22 Nordeste 0 -- -- 76
2020-07-23 22:00:00 15.9 0 Calma 8 Oeste 0 -- -- 91
2020-07-23 21:00:00 17.1 2 Oeste 12 Norte 0 -- -- 90
2020-07-23 20:00:00 17.7 4 Oeste 9 Noroeste 0 -- -- 90
2020-07-23 19:00:00 17.9 4 Oeste 18 Este 0 -- -- 83
2020-07-23 18:00:00 18.7 6 Sudeste 18 Sudeste 2.8 -- -- 82
2020-07-23 17:00:00 23.1 11 Este 27 Sudeste 0 -- -- 58
2020-07-23 16:00:00 25.4 18 Este 32 Este 0 -- -- 56
2020-07-23 15:00:00 25.3 9 Sudeste 23 Sudeste 0 -- -- 57
2020-07-23 14:00:00 26 8 Sudeste 30 Este 0 -- -- 52
2020-07-23 13:00:00 -- 12 Este 28 Este 0 -- -- --
2020-07-23 12:00:00 25.9 10 Este 18 Este 0 -- -- 53
2020-07-23 11:00:00 24.6 9 Este 16 Este 0 -- -- 57
2020-07-23 10:00:00 22 0 Calma 3 Sudoeste 0 -- -- 65
2020-07-23 09:00:00 19 0 Calma 8 Noroeste 0 -- -- 74
2020-07-23 08:00:00 17.5 3 Noroeste 9 Noroeste 0 -- -- 75
2020-07-23 07:00:00 17 0 Calma 5 Noroeste 0 -- -- 76
2020-07-23 06:00:00 17.1 3 Noroeste 8 Oeste 0 -- -- 75
2020-07-23 05:00:00 17.1 0 Calma 6 Noroeste 0 -- -- 75
2020-07-23 04:00:00 17.1 4 Noroeste 8 Noroeste 0 -- -- 74
2020-07-23 03:00:00 16.6 0 Calma 7 Norte 0 -- -- 74
2020-07-23 02:00:00 17.1 0 Calma 12 Oeste 0 -- -- 70
2020-07-23 01:00:00 17.6 8 Noroeste 13 Noroeste 0 -- -- 67
2020-07-23 00:00:00 17.5 3 Oeste 13 Oeste 0 -- -- 68
2020-07-22 23:00:00 18 4 Oeste 12 Noroeste 0 -- -- 66
2020-07-22 22:00:00 19.3 7 Noroeste 14 Noroeste 0 -- -- 60
2020-07-22 21:00:00 21.4 4 Noroeste 10 Noroeste 0 -- -- 52
2020-07-22 20:00:00 25.1 3 Sudoeste 14 Nordeste 0 -- -- 45
2020-07-22 19:00:00 27.5 6 Este 19 Este 0 -- -- 37
2020-07-22 18:00:00 27.8 7 Este 24 Este 0 -- -- 34
2020-07-22 17:00:00 27.7 14 Este 26 Este 0 -- -- 35
2020-07-22 16:00:00 27.9 14 Este 23 Este 0 -- -- 38
2020-07-22 15:00:00 27.7 10 Este 26 Sudeste 0 -- -- 45
2020-07-22 14:00:00 27 9 Sudeste 24 Sur 0 -- -- 48
2020-07-22 13:00:00 27.1 10 Sudeste 20 Este 0 -- -- 56
2020-07-22 12:00:00 25.4 4 Sudeste 8 Sudeste 0 -- -- 55
2020-07-22 11:00:00 22.5 0 Calma 8 Sudoeste 0 -- -- 68
2020-07-22 10:00:00 21.1 0 Calma 5 Este 0 -- -- 75
2020-07-22 09:00:00 17.9 0 Calma 6 Oeste 0 -- -- 80
2020-07-22 08:00:00 15.4 3 Noroeste 12 Oeste 0 -- -- 82
2020-07-22 07:00:00 14.5 3 Noroeste 10 Noroeste 0 -- -- 80
2020-07-22 06:00:00 14.8 5 Noroeste 14 Noroeste 0 -- -- 75
2020-07-22 05:00:00 14.4 5 Noroeste 15 Noroeste 0 -- -- 76
2020-07-22 04:00:00 15.1 9 Noroeste 15 Noroeste 0 -- -- 69
2020-07-22 03:00:00 14.4 5 Noroeste 13 Noroeste 0 -- -- 72
2020-07-22 02:00:00 13.5 2 Sudoeste 5 Noroeste 0 -- -- 82
2020-07-22 01:00:00 13.5 0 Calma 6 Noroeste 0 -- -- 82
2020-07-22 00:00:00 13.8 3 Noroeste 10 Oeste 0 -- -- 80
2020-07-21 23:00:00 13.8 5 Oeste 8 Oeste 0 -- -- 88
2020-07-21 22:00:00 14.8 2 Noroeste 8 Noroeste 0 -- -- 88
2020-07-21 21:00:00 16.1 3 Oeste 8 Oeste 0 -- -- 90
2020-07-21 20:00:00 17.6 3 Sudoeste 12 Noroeste 0 -- -- 86
2020-07-21 19:00:00 18.2 4 Oeste 18 Noroeste 0.2 -- -- 87
2020-07-21 18:00:00 22.2 5 Oeste 23 Este 3.2 -- -- 68
2020-07-21 17:00:00 27.5 9 Este 25 Este 0 -- -- 51
2020-07-21 16:00:00 27.3 15 Este 29 Este 0 -- -- 50
2020-07-21 15:00:00 27.5 15 Este 27 Este 0 -- -- 51
2020-07-21 14:00:00 26.9 13 Este 25 Este 0 -- -- 53
2020-07-21 13:00:00 26.3 14 Este 24 Este 0 -- -- 55
2020-07-21 12:00:00 25.8 8 Este 15 Sudeste 0 -- -- 58
2020-07-21 11:00:00 23.7 5 Sudeste 11 Sudeste 0 -- -- 59
2020-07-21 10:00:00 21.2 2 Sudoeste 4 Sudoeste 0 -- -- 70
2020-07-21 09:00:00 18.1 0 Calma 3 Oeste 0 -- -- 73
2020-07-21 08:00:00 15 3 Este 6 Noroeste 0 -- -- 79
2020-07-21 07:00:00 13.6 0 Calma 5 Oeste 0 -- -- 81
2020-07-21 06:00:00 14 0 Calma 10 Oeste 0 -- -- 79
2020-07-21 05:00:00 14.1 5 Noroeste 10 Oeste 0 -- -- 77
2020-07-21 04:00:00 13.7 0 Calma 4 Oeste 0 -- -- 79
2020-07-21 03:00:00 14.1 0 Calma 8 Noroeste 0 -- -- 77
2020-07-21 02:00:00 14.9 4 Noroeste 15 Oeste 0 -- -- 72
2020-07-21 01:00:00 15.2 3 Noroeste 13 Noroeste 0 -- -- 72
2020-07-21 00:00:00 15.6 7 Noroeste 13 Noroeste 0 -- -- 73
2020-07-20 23:00:00 16.9 6 Noroeste 14 Noroeste 0 -- -- 69
2020-07-20 22:00:00 18.6 3 Noroeste 10 Noroeste 0 -- -- 71
2020-07-20 21:00:00 20.9 0 Calma 8 Oeste 0 -- -- 72
2020-07-20 20:00:00 22.6 4 Noroeste 18 Este 0 -- -- 56
2020-07-20 19:00:00 24.3 6 Este 17 Oeste 0 -- -- 62
2020-07-20 18:00:00 26 6 Este 23 Este 0 -- -- 56
2020-07-20 17:00:00 26.3 12 Este 21 Este 0 -- -- 56
2020-07-20 16:00:00 26.5 10 Este 20 Este 0 -- -- 53
2020-07-20 15:00:00 25.3 12 Este 23 Este 0 -- -- 56
2020-07-20 14:00:00 24.3 12 Este 22 Este 0 -- -- 62
2020-07-20 13:00:00 23.3 10 Este 18 Este 0 -- -- 69
2020-07-20 12:00:00 23.2 8 Este 14 Este 0 -- -- 69
2020-07-20 11:00:00 22.1 5 Sudeste 13 Este 0 -- -- 70
2020-07-20 10:00:00 21.1 4 Sudeste 7 Sudeste 0 -- -- 78
2020-07-20 09:00:00 17.8 3 Noroeste 6 Norte 0 -- -- 86
2020-07-20 08:00:00 14.1 3 Noroeste 4 Este 0 -- -- 96
2020-07-20 07:00:00 13.2 2 Nordeste 8 Noroeste 0 -- -- 96
2020-07-20 06:00:00 13 0 Calma 8 Oeste 0 -- -- 95
2020-07-20 05:00:00 13.3 2 Oeste 4 Oeste 0 -- -- 95
2020-07-20 04:00:00 13.8 2 Este 9 Norte 0 -- -- 94
2020-07-20 03:00:00 14.3 0 Calma 13 Noroeste 0 -- -- 93
2020-07-20 02:00:00 14.6 4 Noroeste 14 Noroeste 0 -- -- 93
2020-07-20 01:00:00 14.8 5 Noroeste 12 Noroeste 0 -- -- 96
2020-07-20 00:00:00 15.4 0 Calma 10 Noroeste 0 -- -- 95
2020-07-19 23:00:00 15.8 4 Este 9 Noroeste 0 -- -- 95
2020-07-19 22:00:00 15.4 4 Oeste 8 Noroeste 0 -- -- 95
2020-07-19 21:00:00 15.9 2 Este 12 Noroeste 0 -- -- 92
2020-07-19 20:00:00 15.8 6 Noroeste 17 Oeste 2.8 -- -- 90
2020-07-19 19:00:00 16.2 7 Noroeste 43 Nordeste 6 -- -- 77
2020-07-19 18:00:00 24.8 10 Sudeste 23 Sur 0 -- -- 59
2020-07-19 17:00:00 24.4 6 Nordeste 22 Este 0 -- -- 63
2020-07-19 16:00:00 24.1 10 Este 27 Este 0 -- -- 63
2020-07-19 15:00:00 25.5 13 Este 27 Este 0 -- -- 59
2020-07-19 14:00:00 25.4 14 Este 24 Este 0 -- -- 59
2020-07-19 13:00:00 24.4 14 Este 22 Este 0 -- -- 60
2020-07-19 12:00:00 23.5 11 Este 20 Este 0 -- -- 61
2020-07-19 11:00:00 22 8 Este 14 Este 0 -- -- 65
2020-07-19 10:00:00 19.5 4 Sudeste 9 Sudeste 0 -- -- 72
2020-07-19 09:00:00 16.8 0 Calma 4 Sur 0 -- -- 82
2020-07-19 08:00:00 13.6 0 Calma 4 Norte 0 -- -- 90
2020-07-19 07:00:00 12.6 2 Noroeste 9 Noroeste 0 -- -- 90
2020-07-19 06:00:00 12.9 5 Noroeste 14 Noroeste 0 -- -- 88
2020-07-19 05:00:00 12.9 6 Noroeste 12 Noroeste 0 -- -- 87
2020-07-19 04:00:00 13.3 7 Noroeste 14 Noroeste 0 -- -- 86
2020-07-19 03:00:00 14.3 8 Noroeste 14 Noroeste 0 -- -- 85
2020-07-19 02:00:00 15.5 6 Noroeste 11 Noroeste 0 -- -- 86
2020-07-19 01:00:00 16.8 4 Noroeste 8 Noroeste 0 -- -- 87
2020-07-19 00:00:00 17.3 3 Oeste 10 Noroeste 0 -- -- 86
2020-07-18 23:00:00 17.2 5 Noroeste 9 Noroeste 0 -- -- 87
2020-07-18 22:00:00 19.3 2 Oeste 10 Este 0 -- -- 81
2020-07-18 21:00:00 21.6 3 Sur 12 Este 0 -- -- 73
2020-07-18 20:00:00 22.8 6 Este 22 Este 0 -- -- 67
2020-07-18 19:00:00 23.4 10 Este 23 Este 0 -- -- 66
2020-07-18 18:00:00 25 11 Este 22 Este 0 -- -- 61
2020-07-18 17:00:00 24.8 12 Este 23 Este 0 -- -- 61
2020-07-18 16:00:00 25.1 13 Este 25 Este 0 -- -- 57
2020-07-18 15:00:00 24.7 14 Este 28 Este 0 -- -- 59
2020-07-18 14:00:00 24.1 12 Este 24 Este 0 -- -- 59
2020-07-18 13:00:00 23.1 12 Este 22 Este 0 -- -- 59
2020-07-18 12:00:00 21.9 9 Este 19 Este 0 -- -- 61
2020-07-18 11:00:00 19.9 7 Sudeste 13 Sudeste 0 -- -- 61
2020-07-18 10:00:00 17.3 3 Sur 8 Sudeste 0 -- -- 70
2020-07-18 09:00:00 14.2 0 Calma 5 Este 0 -- -- 78
2020-07-18 08:00:00 10.9 2 Este 5 Noroeste 0 -- -- 87
2020-07-18 07:00:00 9.7 3 Este 10 Noroeste 0 -- -- 88
2020-07-18 06:00:00 9.7 4 Noroeste 9 Noroeste 0 -- -- 87
2020-07-18 05:00:00 10.7 0 Calma 9 Noroeste 0 -- -- 84
2020-07-18 04:00:00 11.3 0 Calma 12 Este 0 -- -- 85
2020-07-18 03:00:00 12.2 4 Norte 9 Norte 0 -- -- 80
2020-07-18 02:00:00 12.6 3 Este 8 Norte 0 -- -- 82
2020-07-18 01:00:00 13.4 2 Oeste 10 Norte 0 -- -- 79
2020-07-18 00:00:00 14.6 3 Noroeste 11 Noroeste 0 -- -- 79
2020-07-17 23:00:00 16.4 2 Noroeste 7 Noroeste 0 -- -- 83
2020-07-17 22:00:00 17.7 2 Oeste 8 Este 0 -- -- 85
2020-07-17 21:00:00 19.1 4 Sudeste 12 Sudeste 0 -- -- 81
2020-07-17 20:00:00 20.6 5 Este 22 Este 0 -- -- 72
2020-07-17 19:00:00 21.1 6 Este 19 Este 0 -- -- 71
2020-07-17 18:00:00 22.3 12 Este 23 Este 0 -- -- 65
2020-07-17 17:00:00 22.7 12 Este 27 Este 0 -- -- 64
2020-07-17 16:00:00 22.9 12 Este 29 Este 0 -- -- 62
2020-07-17 15:00:00 23.3 17 Este 31 Este 0 -- -- 63
2020-07-17 14:00:00 22.7 12 Este 30 Este 0 -- -- 65
2020-07-17 13:00:00 21.6 12 Este 26 Este 0 -- -- 66
2020-07-17 12:00:00 20.5 13 Este 24 Este 0 -- -- 69
2020-07-17 11:00:00 19.2 11 Este 19 Este 0 -- -- 72
2020-07-17 10:00:00 17.5 4 Este 14 Este 0 -- -- 75
2020-07-17 09:00:00 14.7 2 Norte 8 Este 0 -- -- 80
2020-07-17 08:00:00 11.3 2 Oeste 10 Este 0 -- -- 84
2020-07-17 07:00:00 10.2 4 Noroeste 9 Norte 0 -- -- 84
2020-07-17 06:00:00 10.7 4 Noroeste 12 Oeste 0 -- -- 81
2020-07-17 05:00:00 11.7 5 Norte 12 Noroeste 0 -- -- 87
2020-07-17 04:00:00 13.7 4 Norte 9 Noroeste 0 -- -- 87
2020-07-17 03:00:00 15.4 5 Este 9 Este 0 -- -- 97
2020-07-17 02:00:00 15.6 3 Sudeste 8 Sudeste 0 -- -- 97
2020-07-17 01:00:00 15.9 4 Sudeste 13 Este 0 -- -- 95
2020-07-17 00:00:00 16.5 4 Este 10 Este 0 -- -- 94
2020-07-16 23:00:00 16.9 0 Calma 9 Este 0 -- -- 93
2020-07-16 22:00:00 17.5 2 Sudeste 10 Este 0 -- -- 89
2020-07-16 21:00:00 18.9 4 Este 10 Este 0 -- -- 83
2020-07-16 20:00:00 19.9 4 Sudeste 8 Sudeste 0 -- -- 79
2020-07-16 19:00:00 20.3 3 Sudeste 10 Sudeste 0 -- -- 76
2020-07-16 18:00:00 20.8 5 Este 14 Sudeste 0 -- -- 72
2020-07-16 17:00:00 20.7 7 Sudeste 20 Este 0 -- -- 71
2020-07-16 16:00:00 20.5 7 Este 22 Sudeste 0 -- -- 74
2020-07-16 15:00:00 21.6 12 Este 27 Este 0 -- -- 69
2020-07-16 14:00:00 21.5 13 Este 28 Este 0 -- -- 69
2020-07-16 13:00:00 20.8 15 Este 27 Este 0 -- -- 72
2020-07-16 12:00:00 20.2 14 Este 24 Este 0 -- -- 72
2020-07-16 11:00:00 18.6 15 Este 24 Este 0 -- -- 76
2020-07-16 10:00:00 17 5 Sudeste 10 Este 0 -- -- 78
2020-07-16 09:00:00 13.8 0 Calma 4 Este 0 -- -- 87
2020-07-16 08:00:00 10.9 0 Calma 8 Sudeste 0 -- -- 97
2020-07-16 07:00:00 9.5 2 Este 6 Nordeste 0 -- -- 97
2020-07-16 06:00:00 9.8 3 Noroeste 7 Noroeste 0 -- -- 95
2020-07-16 05:00:00 10.3 4 Noroeste 9 Norte 0 -- -- 95
2020-07-16 04:00:00 10.5 2 Sudoeste 9 Noroeste 0 -- -- 93
2020-07-16 03:00:00 10.9 2 Norte 8 Noroeste 0 -- -- 95
2020-07-16 02:00:00 11.5 4 Noroeste 8 Noroeste 0 -- -- 96
2020-07-16 01:00:00 12.4 3 Noroeste 8 Noroeste 0 -- -- 95
2020-07-16 00:00:00 13.4 2 Noroeste 6 Noroeste 0 -- -- 95
2020-07-15 23:00:00 14.3 0 Calma 5 Sur 0 -- -- 96
2020-07-15 22:00:00 15.1 0 Calma 4 Sudoeste 0 -- -- 94
2020-07-15 21:00:00 15.5 2 Este 7 Sudeste 0 -- -- 93
2020-07-15 20:00:00 16.1 2 Oeste 5 Sudoeste 0.2 -- -- 90
2020-07-15 19:00:00 16.6 2 Oeste 6 Oeste 0 -- -- 83
2020-07-15 18:00:00 16.6 0 Calma 7 Sudeste 0 -- -- 86
2020-07-15 17:00:00 16.7 3 Sudeste 17 Este 0 -- -- 82
2020-07-15 16:00:00 16.3 6 Este 14 Este 0 -- -- 87
2020-07-15 15:00:00 16.7 5 Este 11 Sudeste 0 -- -- 88
2020-07-15 14:00:00 16.1 5 Este 21 Este 0.4 -- -- 90
2020-07-15 13:00:00 17.7 13 Este 25 Este 0 -- -- 81
2020-07-15 12:00:00 17.3 4 Sur 14 Sudeste 0 -- -- 81
2020-07-15 11:00:00 15.9 4 Sudeste 7 Sudeste 0 -- -- 83
2020-07-15 10:00:00 13.4 2 Este 6 Sudeste 0 -- -- 91
2020-07-15 09:00:00 12 0 Calma 5 Noroeste 0 -- -- 96
2020-07-15 08:00:00 10.8 2 Noroeste 6 Noroeste 0 -- -- 97
2020-07-15 07:00:00 10 6 Noroeste 12 Noroeste 0 -- -- 96
2020-07-15 06:00:00 9.6 4 Noroeste 10 Noroeste 0 -- -- 96
2020-07-15 05:00:00 9.7 2 Noroeste 7 Norte 0 -- -- 96
2020-07-15 04:00:00 9.9 0 Calma 9 Noroeste 0 -- -- 95
2020-07-15 03:00:00 10 4 Oeste 6 Noroeste 0 -- -- 96
2020-07-15 02:00:00 10.4 3 Noroeste 6 Noroeste 0 -- -- 96
2020-07-15 01:00:00 10.9 0 Calma 9 Noroeste 0 -- -- 96
2020-07-15 00:00:00 11.6 3 Noroeste 8 Noroeste 0 -- -- 94
2020-07-14 23:00:00 12.6 5 Noroeste 10 Noroeste 0 -- -- 94
2020-07-14 22:00:00 13.6 3 Sudeste 8 Oeste 0 -- -- 95
2020-07-14 21:00:00 13.8 0 Calma 5 Este 0 -- -- 94
2020-07-14 20:00:00 14.3 3 Este 8 Este 0 -- -- 89
2020-07-14 19:00:00 14.9 2 Nordeste 8 Sudoeste 0 -- -- 89
2020-07-14 18:00:00 14.1 5 Oeste 9 Sudoeste 1.4 -- -- 91
2020-07-14 17:00:00 15.8 2 Este 20 Nordeste 0.6 -- -- 83
2020-07-14 16:00:00 18.7 4 Este 17 Sudeste 0 -- -- 64
2020-07-14 15:00:00 19.5 8 Este 28 Sur 0 -- -- 60
2020-07-14 14:00:00 19.9 11 Sur 36 Oeste 0 -- -- 56
2020-07-14 13:00:00 20.2 14 Sudeste 30 Sudeste 0 -- -- 62
2020-07-14 12:00:00 20.1 9 Este 21 Este 0.2 -- -- 69
2020-07-14 11:00:00 18.4 4 Sur 7 Este 0 -- -- 57
2020-07-14 10:00:00 15.7 2 Sudoeste 6 Sudeste 0 -- -- 75
2020-07-14 09:00:00 14.6 3 Sudeste 5 Sudeste 0 -- -- 77
2020-07-14 08:00:00 11.2 3 Noroeste 12 Noroeste 0 -- -- 76
2020-07-14 07:00:00 9.4 6 Noroeste 12 Noroeste 0 -- -- 79
2020-07-14 06:00:00 8.9 3 Noroeste 8 Oeste 0 -- -- 84
2020-07-14 05:00:00 9.1 0 Calma 11 Noroeste 0 -- -- 85
2020-07-14 04:00:00 9.5 5 Noroeste 12 Noroeste 0 -- -- 82
2020-07-14 03:00:00 9.9 2 Norte 9 Sudeste 0 -- -- 83
2020-07-14 02:00:00 11.3 2 Este 11 Norte 0 -- -- 82
2020-07-14 01:00:00 12.1 3 Este 19 Noroeste 0 -- -- 86
2020-07-14 00:00:00 14.4 11 Noroeste 26 Noroeste 0 -- -- 74